createdAt,value
2023-05-22T00:01:56.925Z,74.34
2023-05-22T00:06:59.107Z,74.34
2023-05-22T00:12:01.186Z,74.57
2023-05-22T00:17:03.814Z,75.99
2023-05-22T00:22:06.420Z,74.13
2023-05-22T00:27:08.774Z,75.46
2023-05-22T00:32:10.833Z,74.88
2023-05-22T00:37:12.851Z,75.46
2023-05-22T00:42:15.239Z,76.25
2023-05-22T00:47:17.408Z,75.63
2023-05-22T00:52:19.611Z,74.53
2023-05-22T00:57:22.459Z,75.88
2023-05-22T01:02:24.817Z,75.46
2023-05-22T01:07:26.847Z,75.96
2023-05-22T01:12:44.329Z,76.15
2023-05-22T01:18:20.039Z,76.05
2023-05-22T01:23:49.816Z,76.29
2023-05-22T01:29:19.155Z,75.82
2023-05-22T01:34:21.935Z,76.22
2023-05-22T01:39:26.114Z,75.22
2023-05-22T01:44:28.142Z,76.79
2023-05-22T01:49:30.304Z,76.70
2023-05-22T01:54:46.612Z,76.85
2023-05-22T02:00:00.090Z,76.84
2023-05-22T02:05:05.254Z,77.26
2023-05-22T02:10:11.232Z,77.55
2023-05-22T02:15:13.540Z,77.06
2023-05-22T02:20:16.005Z,77.11
2023-05-22T02:25:18.329Z,76.53
2023-05-22T02:30:20.194Z,76.90
2023-05-22T02:35:22.250Z,77.78
2023-05-22T02:40:24.299Z,77.33
2023-05-22T02:45:26.396Z,78.20
2023-05-22T02:50:28.402Z,77.74
2023-05-22T02:55:30.492Z,77.47
2023-05-22T03:00:32.572Z,78.31
2023-05-22T03:05:34.979Z,79.01
2023-05-22T03:10:37.012Z,78.19
2023-05-22T03:15:39.258Z,78.54
2023-05-22T03:20:42.167Z,79.51
2023-05-22T03:25:44.359Z,79.18
2023-05-22T03:30:46.966Z,79.05
2023-05-22T03:35:49.145Z,79.73
2023-05-22T03:40:51.177Z,79.89
2023-05-22T03:45:53.233Z,79.60
2023-05-22T03:50:55.360Z,80.18
2023-05-22T03:56:00.070Z,79.54
2023-05-22T04:01:02.428Z,78.58
2023-05-22T04:06:04.954Z,76.30
2023-05-22T04:11:07.207Z,74.18
2023-05-22T04:16:09.596Z,76.13
2023-05-22T04:21:13.087Z,77.62
2023-05-22T04:26:18.401Z,78.88
2023-05-22T04:31:23.432Z,78.51
2023-05-22T04:36:29.465Z,78.55
2023-05-22T04:41:32.767Z,78.41
2023-05-22T04:46:36.371Z,78.40
2023-05-22T04:51:38.505Z,76.81
2023-05-22T04:56:41.103Z,75.76
2023-05-22T05:01:48.195Z,74.30
2023-05-22T05:06:50.322Z,74.84
2023-05-22T05:11:53.152Z,74.75
2023-05-22T05:16:55.369Z,75.80
2023-05-22T05:21:57.605Z,76.64
2023-05-22T05:26:59.841Z,76.14
2023-05-22T05:32:01.972Z,75.69
2023-05-22T05:37:05.640Z,75.53
2023-05-22T05:42:07.882Z,74.97
2023-05-22T05:47:09.951Z,73.78
2023-05-22T05:52:12.002Z,74.00
2023-05-22T05:57:15.395Z,72.01
2023-05-22T06:02:17.629Z,70.46
2023-05-22T06:07:20.131Z,69.72
2023-05-22T06:12:22.642Z,67.37
2023-05-22T06:17:24.854Z,66.59
2023-05-22T06:22:27.434Z,64.26
2023-05-22T06:27:29.688Z,61.30
2023-05-22T06:32:32.146Z,60.42
2023-05-22T06:37:36.630Z,58.92
2023-05-22T06:42:41.283Z,57.75
2023-05-22T06:47:44.392Z,57.71
2023-05-22T06:52:57.668Z,52.81
2023-05-22T06:58:02.625Z,53.33
2023-05-22T07:03:07.064Z,52.43
2023-05-22T07:08:09.126Z,52.04
2023-05-22T07:13:11.580Z,47.48
2023-05-22T07:18:14.026Z,47.22
2023-05-22T07:23:16.289Z,48.93
2023-05-22T07:28:18.528Z,48.81
2023-05-22T07:33:20.935Z,44.18
2023-05-22T07:38:27.061Z,44.38
2023-05-22T07:43:29.236Z,44.37
2023-05-22T07:48:31.325Z,42.73
2023-05-22T07:53:33.454Z,39.80
2023-05-22T07:58:35.615Z,42.16
2023-05-22T08:03:38.016Z,41.76
2023-05-22T08:08:40.148Z,40.07
2023-05-22T08:13:42.242Z,36.90
2023-05-22T08:18:44.977Z,37.31
2023-05-22T08:23:47.167Z,35.85
2023-05-22T08:28:49.570Z,34.17
2023-05-22T08:33:51.632Z,33.34
2023-05-22T08:38:53.639Z,35.65
2023-05-22T08:43:56.244Z,34.46
2023-05-22T08:48:59.372Z,33.37
2023-05-22T08:54:07.826Z,33.28
2023-05-22T08:59:11.581Z,29.91
2023-05-22T09:04:14.242Z,31.00
2023-05-22T09:09:16.327Z,32.11
2023-05-22T09:14:19.185Z,33.00
2023-05-22T09:19:21.733Z,31.66
2023-05-22T09:24:23.837Z,30.10
2023-05-22T09:29:26.072Z,29.79
2023-05-22T09:34:31.441Z,31.76
2023-05-22T09:39:41.886Z,29.69
2023-05-22T09:44:49.002Z,30.97
2023-05-22T09:49:51.404Z,31.96
2023-05-22T09:54:56.964Z,31.47
2023-05-22T10:00:01.181Z,29.45
2023-05-22T10:05:09.985Z,30.77
2023-05-22T10:10:15.682Z,30.61
2023-05-22T10:15:19.083Z,28.86
2023-05-22T10:20:22.504Z,28.38
2023-05-22T10:25:26.117Z,29.48
2023-05-22T10:30:50.153Z,28.79
2023-05-22T10:36:10.840Z,30.49
2023-05-22T10:41:14.159Z,29.46
2023-05-22T10:46:16.464Z,29.56
2023-05-22T10:51:23.220Z,30.88
2023-05-22T10:56:33.529Z,30.27
2023-05-22T11:01:38.613Z,30.58
2023-05-22T11:07:03.732Z,31.00
2023-05-22T11:12:17.905Z,31.06
2023-05-22T11:17:31.379Z,30.12
2023-05-22T11:22:39.211Z,30.64
2023-05-22T11:27:41.936Z,28.61
2023-05-22T11:32:46.012Z,27.88
2023-05-22T11:37:50.161Z,29.13
2023-05-22T11:42:53.876Z,29.48
2023-05-22T11:47:56.183Z,28.11
2023-05-22T11:52:59.753Z,28.35
2023-05-22T11:58:03.057Z,29.31
2023-05-22T12:03:06.948Z,29.93
2023-05-22T12:08:09.075Z,28.67
2023-05-22T12:13:11.229Z,29.06
2023-05-22T12:18:13.500Z,28.49
2023-05-22T12:23:30.651Z,28.75
2023-05-22T12:28:33.764Z,30.29
2023-05-22T12:33:36.047Z,26.68
2023-05-22T12:38:41.690Z,27.35
2023-05-22T12:43:43.913Z,27.72
2023-05-22T12:48:46.145Z,27.49
2023-05-22T12:53:48.263Z,28.20
2023-05-22T12:58:51.011Z,28.35
2023-05-22T13:03:53.779Z,27.81
2023-05-22T13:08:55.888Z,28.63
2023-05-22T13:13:58.131Z,28.92
2023-05-22T13:19:00.717Z,27.40
2023-05-22T13:24:05.374Z,27.93
2023-05-22T13:29:08.329Z,27.52
2023-05-22T13:34:10.817Z,26.67
2023-05-22T13:39:13.266Z,25.71
2023-05-22T13:44:15.493Z,26.64
2023-05-22T13:49:17.801Z,26.12
2023-05-22T13:54:19.937Z,27.01
2023-05-22T13:59:23.010Z,27.33
2023-05-22T14:04:25.928Z,26.67
2023-05-22T14:09:28.565Z,27.01
2023-05-22T14:14:30.665Z,27.11
2023-05-22T14:19:32.990Z,27.20
2023-05-22T14:24:35.861Z,27.09
2023-05-22T14:29:39.220Z,28.24
2023-05-22T14:34:41.680Z,27.98
2023-05-22T14:39:45.825Z,28.61
2023-05-22T14:44:48.820Z,28.15
2023-05-22T14:50:14.675Z,29.08
2023-05-22T14:55:23.834Z,30.11
2023-05-22T15:00:27.105Z,30.21
2023-05-22T15:05:29.883Z,30.07
2023-05-22T15:10:32.128Z,29.07
2023-05-22T15:15:34.242Z,30.11
2023-05-22T15:20:38.241Z,29.32
2023-05-22T15:25:40.923Z,30.06
2023-05-22T15:30:44.014Z,30.53
2023-05-22T15:35:47.614Z,30.78
2023-05-22T15:40:50.023Z,31.51
2023-05-22T15:45:52.917Z,31.84
2023-05-22T15:50:55.262Z,30.36
2023-05-22T15:55:57.518Z,31.23
2023-05-22T16:01:00.223Z,31.55
2023-05-22T16:06:03.368Z,32.58
2023-05-22T16:11:05.718Z,33.18
2023-05-22T16:16:10.178Z,32.20
2023-05-22T16:21:12.727Z,32.50
2023-05-22T16:26:15.268Z,32.16
2023-05-22T16:31:19.222Z,32.53
2023-05-22T16:36:21.880Z,32.80
2023-05-22T16:41:24.704Z,32.58
2023-05-22T16:46:28.252Z,33.18
2023-05-22T16:51:30.645Z,33.32
2023-05-22T16:56:35.642Z,33.25
2023-05-22T17:01:39.192Z,33.51
2023-05-22T17:06:41.871Z,33.84
2023-05-22T17:11:44.048Z,35.42
2023-05-22T17:16:52.048Z,35.00
2023-05-22T17:22:02.632Z,34.32
2023-05-22T17:27:07.001Z,34.82
2023-05-22T17:32:09.292Z,35.46
2023-05-22T17:37:11.467Z,36.10
2023-05-22T17:44:42.829Z,37.35
2023-05-22T17:49:46.003Z,40.38
2023-05-22T17:54:50.202Z,41.93
2023-05-22T17:59:52.254Z,43.83
2023-05-22T18:04:54.404Z,44.04
2023-05-22T18:09:56.713Z,45.74
2023-05-22T18:14:58.973Z,48.82
2023-05-22T18:20:01.297Z,48.25
2023-05-22T18:25:04.261Z,48.39
2023-05-22T18:30:07.012Z,50.57
2023-05-22T18:35:09.694Z,50.04
2023-05-22T18:40:12.834Z,46.94
2023-05-22T18:45:15.110Z,45.89
2023-05-22T18:50:17.690Z,46.48
2023-05-22T18:55:20.102Z,45.82
2023-05-22T19:00:22.379Z,45.50
2023-05-22T19:05:24.864Z,45.96
2023-05-22T19:10:27.161Z,45.53
2023-05-22T19:15:29.711Z,45.90
2023-05-22T19:20:32.728Z,45.33
2023-05-22T19:25:35.119Z,45.38
2023-05-22T19:30:41.926Z,45.99
2023-05-22T19:35:47.507Z,46.26
2023-05-22T19:40:50.913Z,48.74
2023-05-22T19:45:54.773Z,49.52
2023-05-22T19:50:56.936Z,57.22
2023-05-22T19:55:59.285Z,55.57
2023-05-22T20:01:01.711Z,53.06
2023-05-22T20:06:04.905Z,52.64
2023-05-22T20:11:07.459Z,51.58
2023-05-22T20:16:29.239Z,51.87
2023-05-22T20:21:41.899Z,51.56
2023-05-22T20:26:56.163Z,52.03
2023-05-22T20:32:01.188Z,52.17
2023-05-22T20:37:04.694Z,52.16
2023-05-22T20:42:15.909Z,51.97
2023-05-22T20:47:20.798Z,51.95
2023-05-22T20:52:25.172Z,52.16
2023-05-22T20:57:30.228Z,52.08
2023-05-22T21:02:32.543Z,52.08
2023-05-22T21:07:35.157Z,52.27
2023-05-22T21:12:37.391Z,52.21
2023-05-22T21:17:39.833Z,52.70
2023-05-22T21:22:41.929Z,52.75
2023-05-22T21:27:44.049Z,52.75
2023-05-22T21:32:46.406Z,53.08
2023-05-22T21:37:48.620Z,53.34
2023-05-22T21:42:51.521Z,53.13
2023-05-22T21:47:54.047Z,52.99
2023-05-22T21:52:56.437Z,53.90
2023-05-22T21:57:58.603Z,53.59
2023-05-22T22:03:01.071Z,53.99
2023-05-22T22:08:03.340Z,53.77
2023-05-22T22:13:05.657Z,53.83
2023-05-22T22:18:07.733Z,54.31
2023-05-22T22:23:09.761Z,53.61
2023-05-22T22:28:11.967Z,53.42
2023-05-22T22:33:14.170Z,54.38
2023-05-22T22:38:16.505Z,53.98
2023-05-22T22:43:19.341Z,54.33
2023-05-22T22:48:22.670Z,54.20
2023-05-22T22:53:24.793Z,54.13
2023-05-22T22:58:27.760Z,54.24
2023-05-22T23:03:29.846Z,54.65
2023-05-22T23:08:31.924Z,54.49
2023-05-22T23:13:33.977Z,54.58
2023-05-22T23:18:36.030Z,55.02
2023-05-22T23:23:38.058Z,54.68
2023-05-22T23:28:40.121Z,55.08
2023-05-22T23:33:42.115Z,55.40
2023-05-22T23:38:44.158Z,54.84
2023-05-22T23:43:46.913Z,55.36
2023-05-22T23:48:49.044Z,55.02
2023-05-22T23:53:51.095Z,55.55
2023-05-22T23:58:53.111Z,55.54
